Time;durP1;ratioP1;P1;durP2;ratioP2;P2;SDS_P1;SDS_P2;PMS_P1;PMS_P2;Temp;Humidity;BMP_temperature;BMP_pressure;BME280_temperature;BME280_humidity;BME280_pressure;Samples;Min_cycle;Max_cycle;Signal;HPM_P1;HPM_P2
2022/08/27 00:02:17;;;;;;;4.32;2.10;;;;;;;19.13;61.22;101628.53;6125111;23;20005;-92
2022/08/27 00:04:43;;;;;;;5.20;2.03;;;;;;;19.08;61.18;101640.41;6151942;23;20092;-92
2022/08/27 00:07:10;;;;;;;3.00;2.38;;;;;;;18.80;61.72;101613.63;6125174;23;20377;-92
2022/08/27 00:09:37;;;;;;;5.28;2.22;;;;;;;18.98;61.49;101641.03;6124228;23;20441;-92
2022/08/27 00:12:03;;;;;;;6.72;2.60;;;;;;;18.95;61.32;101636.75;6149490;23;20076;-92
2022/08/27 00:14:29;;;;;;;4.85;2.55;;;;;;;18.82;62.13;101631.28;6124577;23;20032;-92
2022/08/27 00:16:55;;;;;;;4.10;2.38;;;;;;;18.77;62.11;101630.72;6150846;23;20318;-91
2022/08/27 00:19:21;;;;;;;6.68;2.67;;;;;;;18.74;62.11;101624.69;6150798;23;20005;-92
2022/08/27 00:21:47;;;;;;;5.25;2.20;;;;;;;18.69;63.33;101622.28;6148937;23;20608;-92
2022/08/27 00:24:12;;;;;;;5.82;2.38;;;;;;;18.50;62.95;101594.88;6123764;23;20017;-91
2022/08/27 00:26:38;;;;;;;5.70;2.20;;;;;;;18.50;63.60;101621.66;6150250;23;20338;-92
2022/08/27 00:29:04;;;;;;;3.67;1.90;;;;;;;18.38;63.16;101623.28;6122840;23;20032;-92
2022/08/27 00:31:30;;;;;;;5.68;2.25;;;;;;;18.27;64.03;101621.25;6125136;23;20013;-91
2022/08/27 00:33:56;;;;;;;6.22;2.47;;;;;;;18.29;64.33;101624.69;6124985;23;20063;-92
2022/08/27 00:36:22;;;;;;;7.40;2.40;;;;;;;18.22;64.11;101601.91;6150450;23;20006;-91
2022/08/27 00:38:48;;;;;;;4.30;2.22;;;;;;;18.31;64.41;101613.88;6125484;23;20342;-92
2022/08/27 00:41:13;;;;;;;4.75;2.50;;;;;;;18.35;64.47;101620.78;6126432;23;20051;-92
2022/08/27 00:44:06;;;;;;;6.03;2.22;;;;;;;18.39;63.68;101624.16;6125769;23;20388;-92
2022/08/27 00:46:48;;;;;;;2.30;2.10;;;;;;;18.20;64.31;101611.00;6145796;23;20456;-92
2022/08/27 00:49:35;;;;;;;4.55;2.60;;;;;;;18.22;64.09;101617.97;6152022;23;20016;-91
2022/08/27 00:52:05;;;;;;;5.97;2.50;;;;;;;18.03;64.37;101622.72;6126551;23;20017;-93
2022/08/27 00:54:32;;;;;;;3.92;2.30;;;;;;;17.83;65.62;101613.19;6153357;23;20405;-92
2022/08/27 00:56:59;;;;;;;4.95;2.60;;;;;;;17.86;66.13;101623.72;6152822;23;20006;-92
2022/08/27 00:59:29;;;;;;;4.88;2.63;;;;;;;17.85;66.30;101628.16;6151533;23;20492;-92
2022/08/27 01:04:42;;;;;;;8.00;3.00;;;;;;;17.80;66.31;101635.59;6152399;23;20020;-92
2022/08/27 01:07:08;;;;;;;8.40;2.83;;;;;;;17.70;66.39;101612.97;6126408;23;20125;-91
2022/08/27 01:09:35;;;;;;;6.90;2.88;;;;;;;17.71;66.49;101619.19;6124968;23;20052;-92
2022/08/27 01:12:01;;;;;;;6.93;2.42;;;;;;;17.75;66.42;101621.63;6152084;23;20089;-92
2022/08/27 01:14:27;;;;;;;6.88;2.55;;;;;;;17.67;66.61;101613.16;6125348;23;20449;-91
2022/08/27 01:16:56;;;;;;;7.07;2.70;;;;;;;17.70;66.49;101618.34;6125162;23;20052;-91
2022/08/27 01:19:29;;;;;;;4.40;3.00;;;;;;;17.63;66.51;101606.28;6125168;23;20092;-92
2022/08/27 01:22:38;;;;;;;6.20;2.92;;;;;;;17.71;66.20;101605.81;6125685;23;20001;-92
2022/08/27 01:25:08;;;;;;;6.70;3.05;;;;;;;17.50;66.56;101587.41;6061724;23;20001;-91
2022/08/27 01:27:34;;;;;;;5.85;3.25;;;;;;;17.69;67.04;101621.97;6125515;23;20025;-92
2022/08/27 01:29:59;;;;;;;6.18;2.60;;;;;;;17.57;66.34;101622.66;6126000;23;20083;-91
2022/08/27 01:32:28;;;;;;;4.32;2.78;;;;;;;17.54;66.94;101617.50;6125613;23;20327;-92
2022/08/27 01:34:54;;;;;;;5.03;2.90;;;;;;;17.48;66.04;101605.31;6125718;23;20017;-91
2022/08/27 01:37:21;;;;;;;7.70;3.38;;;;;;;17.53;67.09;101616.66;6126912;23;20089;-91
2022/08/27 01:39:47;;;;;;;6.18;3.15;;;;;;;17.45;67.18;101605.53;6152557;23;20002;-92
2022/08/27 01:42:29;;;;;;;5.10;3.92;;;;;;;17.54;66.90;101612.16;6126240;23;20485;-92
2022/08/27 01:45:04;;;;;;;5.05;2.92;;;;;;;17.31;67.54;101598.28;6126434;23;20013;-92
2022/08/27 01:47:30;;;;;;;4.78;3.20;;;;;;;17.30;68.34;101614.41;6125914;23;20373;-92
2022/08/27 01:49:56;;;;;;;6.28;3.28;;;;;;;17.26;68.26;101616.38;6150773;23;20005;-92
2022/08/27 01:52:25;;;;;;;4.60;2.95;;;;;;;17.24;67.99;101610.25;6125067;23;20005;-91
2022/08/27 01:54:51;;;;;;;4.55;2.90;;;;;;;17.24;66.55;101618.25;6125196;23;20006;-91
2022/08/27 01:57:18;;;;;;;6.93;3.08;;;;;;;17.11;68.11;101603.84;6125155;23;20013;-91
2022/08/27 01:59:44;;;;;;;5.45;2.97;;;;;;;17.17;67.58;101616.91;6125127;23;20013;-92
2022/08/27 02:02:11;;;;;;;5.50;3.53;;;;;;;17.01;68.56;101598.16;6151096;23;20012;-92
2022/08/27 02:04:37;;;;;;;4.63;3.53;;;;;;;16.86;69.12;101598.13;6151416;23;19997;-92
2022/08/27 02:07:03;;;;;;;9.30;4.05;;;;;;;16.74;69.36;101597.88;6125159;23;20050;-92
2022/08/27 02:09:28;;;;;;;6.70;3.45;;;;;;;16.69;69.83;101609.69;6125643;23;20010;-92
2022/08/27 02:11:54;;;;;;;7.25;3.30;;;;;;;16.62;69.75;101593.16;6126367;23;20064;-91
2022/08/27 02:14:19;;;;;;;8.43;3.17;;;;;;;16.77;69.89;101611.03;6123746;23;20009;-92
2022/08/27 02:16:45;;;;;;;8.95;3.42;;;;;;;16.77;69.15;101587.00;6151265;23;20037;-92
2022/08/27 02:19:11;;;;;;;3.78;3.10;;;;;;;16.80;68.64;101604.69;6125353;23;20088;-92
2022/08/27 02:21:36;;;;;;;7.88;3.33;;;;;;;16.75;68.48;101599.59;6124748;23;20013;-92
2022/08/27 02:24:02;;;;;;;9.25;3.60;;;;;;;16.71;69.35;101611.34;6124860;23;20005;-91
2022/08/27 02:26:27;;;;;;;6.00;3.22;;;;;;;16.52;69.48;101571.41;6125102;23;20032;-91
2022/08/27 02:28:53;;;;;;;5.90;3.20;;;;;;;16.63;69.41;101604.69;6126244;23;20009;-92
2022/08/27 02:31:19;;;;;;;6.85;3.53;;;;;;;16.55;69.56;101592.63;6151524;23;20001;-92
2022/08/27 02:33:44;;;;;;;5.93;3.42;;;;;;;16.51;69.79;101591.06;6152251;23;20335;-92
2022/08/27 02:36:11;;;;;;;5.72;3.00;;;;;;;16.51;69.60;101590.19;6125560;23;20012;-91
2022/08/27 02:38:36;;;;;;;6.05;3.30;;;;;;;16.43;69.40;101584.41;6126270;23;20076;-91
2022/08/27 02:41:02;;;;;;;5.18;3.38;;;;;;;16.39;69.59;101574.81;6125085;23;20010;-92
2022/08/27 02:43:28;;;;;;;5.18;3.22;;;;;;;16.55;67.71;101597.06;6125206;23;20001;-91
2022/08/27 02:45:53;;;;;;;6.78;3.53;;;;;;;16.41;69.90;101600.47;6123743;23;20005;-91
2022/08/27 02:48:19;;;;;;;6.88;3.75;;;;;;;16.38;69.80;101600.66;6151714;23;20418;-92
2022/08/27 02:50:45;;;;;;;6.47;3.80;;;;;;;16.26;70.04;101580.78;6151339;23;20041;-91
2022/08/27 02:53:10;;;;;;;5.85;3.60;;;;;;;16.35;69.95;101602.59;6124175;23;20009;-91
2022/08/27 02:55:36;;;;;;;6.65;3.53;;;;;;;16.31;69.57;101597.41;6123800;23;20025;-91
2022/08/27 02:58:01;;;;;;;5.95;3.53;;;;;;;16.27;69.13;101586.97;6150621;23;20009;-91
2022/08/27 03:00:28;;;;;;;5.80;3.67;;;;;;;16.18;69.96;101582.13;6124480;23;20429;-91
2022/08/27 03:02:54;;;;;;;5.82;3.58;;;;;;;16.20;69.98;101586.44;6124131;23;20500;-91
2022/08/27 03:05:20;;;;;;;5.15;3.28;;;;;;;16.24;70.44;101595.16;6124679;23;20087;-92
2022/08/27 03:07:46;;;;;;;4.90;3.60;;;;;;;16.24;70.26;101600.50;6150586;23;20297;-91
2022/08/27 03:10:14;;;;;;;7.45;3.50;;;;;;;16.23;70.05;101601.47;6150650;23;20032;-92
2022/08/27 03:12:40;;;;;;;9.88;3.33;;;;;;;16.15;70.16;101599.16;6125022;23;20005;-91
2022/08/27 03:15:09;;;;;;;7.55;3.17;;;;;;;16.14;70.04;101597.44;6124005;23;20084;-92
2022/08/27 03:20:19;;;;;;;7.75;3.63;;;;;;;16.16;70.04;101594.69;6150943;23;20733;-91
2022/08/27 03:22:45;;;;;;;5.28;3.53;;;;;;;16.19;69.28;101605.22;6124612;23;20005;-91
2022/08/27 03:25:11;;;;;;;6.07;3.78;;;;;;;16.20;69.83;101602.47;6124074;23;20001;-92
2022/08/27 03:27:37;;;;;;;4.65;3.20;;;;;;;16.13;70.48;101592.16;6123807;23;20130;-91
2022/08/27 03:30:09;;;;;;;6.00;3.38;;;;;;;16.24;70.72;101597.84;6119865;23;20452;-92
2022/08/27 03:32:35;;;;;;;5.55;3.47;;;;;;;16.26;70.58;101601.28;6148938;23;20040;-92
2022/08/27 03:35:00;;;;;;;5.72;3.38;;;;;;;16.25;70.58;101600.41;6123783;23;20009;-92
2022/08/27 03:37:25;;;;;;;5.15;3.50;;;;;;;16.21;71.04;101588.16;6123781;23;20005;-92
2022/08/27 03:39:51;;;;;;;6.40;3.63;;;;;;;16.24;71.01;101588.03;6123779;23;20019;-91
2022/08/27 03:42:16;;;;;;;6.82;3.85;;;;;;;16.22;71.33;101597.91;6148481;23;20333;-92
2022/08/27 03:44:42;;;;;;;6.63;3.80;;;;;;;16.24;71.14;101606.69;6124904;23;20001;-92
2022/08/27 03:47:07;;;;;;;4.40;3.67;;;;;;;16.22;71.79;101605.91;6124269;23;20064;-91
2022/08/27 03:49:32;;;;;;;7.07;3.50;;;;;;;16.29;71.31;101599.31;6123644;23;20009;-92
2022/08/27 03:51:58;;;;;;;5.97;3.67;;;;;;;16.29;70.84;101595.78;6124634;23;20087;-92
2022/08/27 03:54:24;;;;;;;6.43;3.95;;;;;;;16.27;71.30;101595.88;6124009;23;20484;-92
2022/08/27 03:56:50;;;;;;;5.72;3.60;;;;;;;16.28;71.39;101607.41;6124061;23;20396;-91
2022/08/27 03:59:16;;;;;;;5.88;4.18;;;;;;;16.20;71.64;101586.44;6123564;23;20417;-91
2022/08/27 04:01:43;;;;;;;3.95;3.47;;;;;;;16.24;71.40;101593.34;6150288;23;20019;-91
2022/08/27 04:04:08;;;;;;;10.25;4.63;;;;;;;16.21;71.71;101592.66;6123845;23;20009;-92
2022/08/27 04:06:34;;;;;;;6.00;3.70;;;;;;;16.23;71.56;101596.97;6150371;23;20170;-91
2022/08/27 04:08:59;;;;;;;5.32;3.65;;;;;;;16.17;71.42;101594.59;6150373;23;20005;-91
2022/08/27 04:11:25;;;;;;;5.43;3.13;;;;;;;16.13;69.99;101601.03;6123661;23;20088;-91
2022/08/27 04:13:50;;;;;;;5.13;3.55;;;;;;;16.03;69.44;101591.78;6151552;23;20036;-91
2022/08/27 04:16:16;;;;;;;5.80;3.70;;;;;;;16.05;70.00;101608.59;6149998;23;20006;-91
2022/08/27 04:18:41;;;;;;;5.68;3.50;;;;;;;15.82;70.43;101583.94;6124330;23;20009;-91
2022/08/27 04:21:12;;;;;;;6.13;3.20;;;;;;;15.97;70.99;101595.63;6149639;23;20436;-91
2022/08/27 04:23:39;;;;;;;6.75;3.28;;;;;;;15.82;70.69;101569.75;6150638;23;20076;-92
2022/08/27 04:26:06;;;;;;;5.18;3.50;;;;;;;15.90;70.69;101591.56;6123185;23;20010;-91
2022/08/27 04:28:32;;;;;;;6.43;3.92;;;;;;;15.85;71.80;101593.56;6124531;23;20040;-91
2022/08/27 04:30:57;;;;;;;8.48;4.15;;;;;;;15.73;73.02;101597.72;6148860;23;20001;-92
2022/08/27 04:33:22;;;;;;;4.35;3.50;;;;;;;15.61;71.83;101576.09;6149644;23;20080;-92
2022/08/27 04:35:56;;;;;;;6.93;3.88;;;;;;;15.73;71.80;101595.06;6149354;23;20005;-92
2022/08/27 04:38:22;;;;;;;5.05;3.83;;;;;;;15.70;72.47;101591.69;6149551;23;20095;-92
2022/08/27 04:43:31;;;;;;;5.57;3.80;;;;;;;15.64;73.12;101605.31;6149614;23;20017;-91
2022/08/27 04:45:56;;;;;;;6.70;3.53;;;;;;;15.61;73.01;101602.75;6123187;23;20010;-92
2022/08/27 04:48:22;;;;;;;8.65;4.50;;;;;;;15.43;73.98;101594.72;6125109;23;20463;-92
2022/08/27 04:50:47;;;;;;;10.00;4.25;;;;;;;15.39;74.53;101614.47;6149861;23;20005;-91
2022/08/27 04:53:14;;;;;;;8.68;4.35;;;;;;;15.23;74.76;101602.81;6124603;23;20009;-92
2022/08/27 04:55:45;;;;;;;6.53;4.15;;;;;;;15.32;74.70;101607.69;6124274;23;20016;-92
2022/08/27 04:58:10;;;;;;;9.70;4.28;;;;;;;15.45;73.89;101610.66;6150146;23;20009;-92
2022/08/27 05:00:43;;;;;;;4.50;4.05;;;;;;;15.52;73.38;101607.59;6122805;23;20024;-91
2022/08/27 05:03:09;;;;;;;7.45;3.65;;;;;;;15.62;72.81;101608.03;6123707;23;20425;-91
2022/08/27 05:05:35;;;;;;;5.53;4.32;;;;;;;15.66;73.23;101617.63;6150751;23;20001;-91
2022/08/27 05:08:01;;;;;;;6.65;4.45;;;;;;;15.69;73.60;101616.63;6123170;23;20084;-91
2022/08/27 05:10:27;;;;;;;7.97;4.10;;;;;;;15.49;73.57;101589.09;6123283;23;20013;-91
2022/08/27 05:12:52;;;;;;;5.63;3.70;;;;;;;15.64;73.22;101606.19;6149477;23;20005;-91
2022/08/27 05:15:17;;;;;;;9.13;3.90;;;;;;;15.84;72.84;101612.31;6122612;23;20005;-91
2022/08/27 05:17:42;;;;;;;6.75;3.92;;;;;;;15.85;72.48;101612.22;6123850;23;20425;-90
2022/08/27 05:20:09;;;;;;;9.65;4.18;;;;;;;15.99;72.06;101606.22;6123434;23;20055;-91
2022/08/27 05:22:34;;;;;;;4.88;4.00;;;;;;;16.11;71.86;101612.75;6124620;23;20321;-91
2022/08/27 05:25:00;;;;;;;7.72;3.78;;;;;;;16.16;71.99;101608.03;6122828;23;20005;-91
2022/08/27 05:27:25;;;;;;;5.07;3.80;;;;;;;16.28;71.15;101616.28;6152554;23;20009;-91
2022/08/27 05:29:51;;;;;;;3.92;3.53;;;;;;;16.43;71.08;101622.63;6125372;23;20020;-91
2022/08/27 05:32:16;;;;;;;8.63;4.35;;;;;;;16.37;72.24;101614.94;6126369;23;20414;-90
2022/08/27 05:34:41;;;;;;;5.72;3.92;;;;;;;16.41;71.30;101604.94;6124417;23;20041;-91
2022/08/27 05:37:07;;;;;;;6.10;4.22;;;;;;;16.56;71.22;101610.34;6123417;23;20108;-91
2022/08/27 05:39:33;;;;;;;7.40;4.43;;;;;;;16.67;71.68;101623.13;6124452;23;20016;-91
2022/08/27 05:41:58;;;;;;;7.45;4.35;;;;;;;16.70;71.15;101617.63;6150970;23;20006;-92
2022/08/27 05:44:24;;;;;;;7.03;4.05;;;;;;;16.80;70.87;101616.22;6124371;23;20012;-90
2022/08/27 05:46:49;;;;;;;7.80;4.30;;;;;;;16.92;71.33;101617.34;6126021;23;20001;-92
2022/08/27 05:49:15;;;;;;;5.82;4.25;;;;;;;17.02;69.68;101618.59;6123415;23;20013;-91
2022/08/27 05:51:40;;;;;;;7.97;4.35;;;;;;;17.12;70.83;101621.63;6125399;23;20005;-91
2022/08/27 05:54:15;;;;;;;5.80;4.50;;;;;;;17.24;71.27;101628.09;6124492;23;20017;-91
2022/08/27 05:56:41;;;;;;;7.43;4.72;;;;;;;17.29;69.53;101615.34;6125482;23;20027;-90
2022/08/27 06:01:53;;;;;;;5.32;4.82;;;;;;;17.47;70.02;101605.41;6151811;23;20067;-91
2022/08/27 06:04:19;;;;;;;7.53;4.95;;;;;;;17.58;71.39;101621.72;6125356;23;20006;-91
2022/08/27 06:06:46;;;;;;;6.93;4.60;;;;;;;17.67;71.04;101629.19;6151053;23;20018;-92
2022/08/27 06:09:17;;;;;;;8.13;5.45;;;;;;;17.75;70.92;101635.00;6124797;23;20005;-91
2022/08/27 06:11:43;;;;;;;8.82;5.03;;;;;;;17.82;70.43;101633.72;6151672;23;20009;-92
2022/08/27 06:14:09;;;;;;;9.70;4.68;;;;;;;17.82;69.43;101628.38;6123977;23;20060;-90
2022/08/27 06:16:38;;;;;;;7.20;4.57;;;;;;;17.91;69.97;101623.44;6126043;23;20342;-91
2022/08/27 06:19:05;;;;;;;7.60;4.50;;;;;;;17.97;70.15;101623.06;6150231;23;20002;-91
2022/08/27 06:21:30;;;;;;;9.18;4.85;;;;;;;18.08;69.62;101631.31;6151494;23;20441;-91
2022/08/27 06:23:56;;;;;;;8.05;4.65;;;;;;;18.14;69.05;101632.75;6123336;23;20009;-92
2022/08/27 06:26:23;;;;;;;13.05;5.10;;;;;;;18.24;69.13;101647.34;6124733;23;20008;-91
2022/08/27 06:28:48;;;;;;;8.55;4.18;;;;;;;18.24;68.33;101632.16;6124123;23;20040;-90
2022/08/27 06:31:21;;;;;;;10.52;4.82;;;;;;;18.18;67.66;101611.09;6123934;23;20452;-90
2022/08/27 06:33:47;;;;;;;9.73;4.28;;;;;;;18.34;67.81;101635.13;6099493;23;20360;-91
2022/08/27 06:36:20;;;;;;;8.45;4.28;;;;;;;18.32;68.16;101635.22;6149887;23;20013;-90
2022/08/27 06:38:46;;;;;;;7.82;4.28;;;;;;;18.39;67.97;101634.84;6151070;23;20013;-91
2022/08/27 06:41:14;;;;;;;6.80;4.30;;;;;;;18.38;67.37;101627.78;6150120;23;20072;-91
2022/08/27 06:43:41;;;;;;;6.63;4.03;;;;;;;18.55;67.17;101651.72;6124798;23;20084;-90
2022/08/27 06:46:09;;;;;;;9.05;4.38;;;;;;;18.53;67.27;101635.75;6150265;23;20010;-91
2022/08/27 06:48:34;;;;;;;10.05;4.30;;;;;;;18.54;67.11;101648.16;6151271;23;20060;-91
2022/08/27 06:51:06;;;;;;;7.88;4.22;;;;;;;18.58;66.92;101641.69;6124904;23;20002;-91
2022/08/27 06:53:32;;;;;;;7.50;3.53;;;;;;;18.66;67.25;101643.91;6150770;23;20005;-90
2022/08/27 06:55:57;;;;;;;8.57;3.90;;;;;;;18.60;66.32;101631.75;6124828;23;20056;-91
2022/08/27 06:58:23;;;;;;;13.52;4.20;;;;;;;18.61;66.41;101635.28;6151435;23;20414;-91
2022/08/27 07:00:49;;;;;;;11.65;4.72;;;;;;;18.73;67.02;101642.59;6124226;23;20013;-91
2022/08/27 07:03:14;;;;;;;7.47;3.63;;;;;;;18.76;66.92;101638.88;6150876;23;20429;-91
2022/08/27 07:05:40;;;;;;;8.05;4.65;;;;;;;18.82;66.55;101633.97;6124528;23;20005;-91
2022/08/27 07:08:07;;;;;;;7.90;4.05;;;;;;;18.90;66.67;101643.38;6124552;23;20025;-91
2022/08/27 07:10:33;;;;;;;6.22;4.20;;;;;;;18.84;66.12;101640.13;6124297;23;20104;-91
2022/08/27 07:12:58;;;;;;;5.53;3.92;;;;;;;18.95;65.53;101634.09;6150717;23;20032;-91
2022/08/27 07:15:24;;;;;;;8.35;4.07;;;;;;;18.98;64.98;101639.25;6149259;23;20368;-91
2022/08/27 07:17:50;;;;;;;10.13;3.60;;;;;;;19.07;64.93;101654.75;6124423;23;20009;-91
2022/08/27 07:20:17;;;;;;;6.10;4.20;;;;;;;19.09;65.33;101651.97;6123813;23;20238;-91
2022/08/27 07:22:43;;;;;;;6.68;3.97;;;;;;;19.14;65.10;101654.38;6150718;23;20437;-90
2022/08/27 07:25:13;;;;;;;8.65;4.78;;;;;;;19.16;65.14;101652.44;6123681;23;20315;-91
2022/08/27 07:27:39;;;;;;;5.40;4.15;;;;;;;19.25;64.31;101652.72;6151758;23;20452;-91
2022/08/27 07:30:06;;;;;;;7.65;4.43;;;;;;;19.24;65.11;101642.09;6124249;23;20080;-92
2022/08/27 07:32:32;;;;;;;10.63;5.22;;;;;;;19.36;64.32;101647.53;6125063;23;20060;-91
2022/08/27 07:34:57;;;;;;;8.00;4.35;;;;;;;19.48;63.28;101653.06;6124539;23;20013;-91
2022/08/27 07:37:23;;;;;;;6.80;4.20;;;;;;;19.58;62.49;101652.41;6123817;23;20120;-91
2022/08/27 07:39:48;;;;;;;7.55;4.40;;;;;;;19.60;62.46;101646.94;6150500;23;20001;-91
2022/08/27 07:44:57;;;;;;;8.05;3.85;;;;;;;19.83;61.50;101648.97;6149256;23;20066;-91
2022/08/27 07:47:23;;;;;;;10.18;4.50;;;;;;;19.92;62.14;101652.03;6125110;23;20013;-90
2022/08/27 07:49:49;;;;;;;7.20;4.80;;;;;;;20.10;61.52;101658.84;6124293;23;20029;-90
2022/08/27 07:52:15;;;;;;;9.30;4.78;;;;;;;20.25;61.27;101663.19;6148225;23;20010;-92
2022/08/27 07:54:41;;;;;;;7.47;4.45;;;;;;;20.43;60.31;101662.91;6150670;23;20481;-92
2022/08/27 07:57:06;;;;;;;5.53;4.70;;;;;;;20.61;59.67;101656.25;6151231;23;20025;-91
2022/08/27 07:59:31;;;;;;;9.07;4.50;;;;;;;20.89;58.84;101648.00;6149745;23;20036;-91
2022/08/27 08:01:57;;;;;;;7.03;5.03;;;;;;;21.17;58.12;101675.63;6148466;23;20012;-91
2022/08/27 08:04:23;;;;;;;10.27;4.47;;;;;;;21.22;56.89;101669.91;6149833;23;20009;-91
2022/08/27 08:06:49;;;;;;;9.02;4.63;;;;;;;21.32;57.03;101662.94;6151486;23;20072;-90
2022/08/27 08:09:15;;;;;;;5.93;4.50;;;;;;;21.48;56.64;101659.97;6150776;23;20084;-90
2022/08/27 08:11:40;;;;;;;6.50;4.80;;;;;;;21.82;56.44;101672.69;6150663;23;20024;-91
2022/08/27 08:14:06;;;;;;;10.60;4.80;;;;;;;22.04;55.10;101641.44;6123048;23;20017;-90
2022/08/27 08:16:32;;;;;;;7.45;4.45;;;;;;;22.59;53.28;101658.78;6149927;23;20426;-89
2022/08/27 08:18:59;;;;;;;9.10;4.88;;;;;;;23.09;51.13;101659.38;6122632;23;20422;-89
2022/08/27 08:21:24;;;;;;;9.32;3.55;;;;;;;23.61;48.08;101650.59;6124532;23;20057;-89
2022/08/27 08:23:50;;;;;;;9.93;3.38;;;;;;;24.06;48.58;101655.00;6150439;23;20001;-88
2022/08/27 08:26:15;;;;;;;8.90;3.80;;;;;;;24.27;47.20;101664.00;6123498;23;20005;-88
2022/08/27 08:28:41;;;;;;;9.32;3.38;;;;;;;24.24;47.34;101653.44;6122855;23;20013;-88
2022/08/27 08:31:07;;;;;;;6.70;3.30;;;;;;;24.43;47.99;101661.75;6148254;23;20036;-89
2022/08/27 08:33:33;;;;;;;7.30;3.33;;;;;;;24.50;45.34;101645.84;6122069;23;20009;-89
2022/08/27 08:36:12;;;;;;;7.93;3.20;;;;;;;25.17;46.23;101668.88;6148429;23;20066;-88
2022/08/27 08:38:39;;;;;;;5.72;2.88;;;;;;;25.53;43.73;101672.84;6122595;23;20013;-88
2022/08/27 08:41:06;;;;;;;6.32;2.85;;;;;;;25.64;42.69;101672.72;6148693;23;20337;-88
2022/08/27 08:43:36;;;;;;;5.28;2.45;;;;;;;25.69;41.71;101673.19;6149918;23;20039;-88
2022/08/27 08:46:32;;;;;;;3.88;1.98;;;;;;;26.03;43.62;101661.13;6122729;23;20008;-88
2022/08/27 08:49:24;;;;;;;4.30;2.28;;;;;;;26.58;40.29;101661.38;6149676;23;20426;-88
2022/08/27 08:51:53;;;;;;;5.72;2.17;;;;;;;27.22;40.92;101655.19;6090441;23;20016;-86
2022/08/27 08:54:21;;;;;;;6.18;2.20;;;;;;;27.53;37.66;101669.31;6148705;23;20012;-87
2022/08/27 08:56:58;;;;;;;6.75;1.85;;;;;;;27.60;39.42;101658.69;6150801;23;20437;-87
2022/08/27 08:59:33;;;;;;;5.10;1.98;;;;;;;28.19;37.43;101670.88;6123909;23;20507;-88
2022/08/27 09:01:58;;;;;;;7.10;1.90;;;;;;;28.31;36.56;101664.19;6123840;23;20013;-88
2022/08/27 09:04:26;;;;;;;4.53;1.80;;;;;;;28.95;35.67;101668.41;6150540;23;20005;-88
2022/08/27 09:06:57;;;;;;;4.60;2.00;;;;;;;29.62;34.52;101656.81;6152609;23;20021;-87
2022/08/27 09:09:42;;;;;;;4.35;2.00;;;;;;;30.23;34.51;101672.78;6150440;23;20315;-87
2022/08/27 09:12:21;;;;;;;3.95;1.90;;;;;;;29.77;32.32;101685.13;6123230;23;20016;-88
2022/08/27 09:14:52;;;;;;;6.43;2.30;;;;;;;28.97;34.68;101681.88;6124817;23;20485;-88
2022/08/27 09:17:17;;;;;;;4.53;2.00;;;;;;;28.26;34.51;101671.97;6150891;23;20005;-89
2022/08/27 09:19:42;;;;;;;3.47;1.90;;;;;;;27.69;36.65;101671.34;6122694;23;20005;-89
2022/08/27 09:22:37;;;;;;;3.70;1.70;;;;;;;27.29;38.77;101680.75;6152389;23;20446;-89
2022/08/27 09:25:20;;;;;;;5.35;1.83;;;;;;;26.48;38.03;101684.94;6125139;23;20020;-90
2022/08/27 09:27:47;;;;;;;3.05;1.50;;;;;;;25.83;38.97;101663.78;6126260;23;20133;-90
2022/08/27 09:30:19;;;;;;;5.35;1.77;;;;;;;25.59;39.83;101679.53;6125096;23;20009;-90
2022/08/27 09:32:56;;;;;;;6.30;1.77;;;;;;;25.52;41.07;101672.97;6126376;23;20088;-89
2022/08/27 09:35:25;;;;;;;3.72;1.75;;;;;;;25.53;41.02;101682.81;6125612;23;20001;-89
2022/08/27 09:37:53;;;;;;;6.80;1.80;;;;;;;25.50;41.09;101667.69;6152451;23;20025;-89
2022/08/27 09:40:31;;;;;;;4.05;1.38;;;;;;;25.57;40.19;101668.00;6149524;23;20274;-90
2022/08/27 09:43:07;;;;;;;6.07;1.75;;;;;;;25.80;40.64;101668.66;6151214;23;20009;-89
2022/08/27 09:45:34;;;;;;;3.72;1.67;;;;;;;26.03;40.10;101667.38;6126216;23;19998;-89
2022/08/27 09:48:20;;;;;;;3.15;1.67;;;;;;;26.93;39.29;101671.56;6152467;23;20005;-90
2022/08/27 09:50:53;;;;;;;4.10;1.75;;;;;;;28.41;36.31;101675.84;6149983;23;20013;-90
2022/08/27 09:53:29;;;;;;;3.17;1.45;;;;;;;29.69;34.45;101676.94;6151584;23;20349;-89
2022/08/27 09:55:59;;;;;;;3.83;1.33;;;;;;;30.28;31.79;101675.00;6125671;23;20005;-89
2022/08/27 09:58:28;;;;;;;3.78;1.40;;;;;;;30.73;30.41;101677.22;6151365;23;20423;-89
2022/08/27 10:01:06;;;;;;;3.58;1.73;;;;;;;29.91;32.43;101679.03;6123490;23;20020;-89
2022/08/27 10:03:32;;;;;;;4.00;1.60;;;;;;;29.98;32.02;101652.81;6124109;23;20014;-89
2022/08/27 10:05:59;;;;;;;4.70;1.77;;;;;;;29.40;31.19;101664.53;6151907;23;20417;-89
2022/08/27 10:08:28;;;;;;;2.92;1.70;;;;;;;29.10;33.11;101675.97;6152417;23;20494;-90
2022/08/27 10:11:00;;;;;;;4.50;1.40;;;;;;;28.34;34.26;101679.31;6151510;23;20010;-89
2022/08/27 10:13:32;;;;;;;2.95;1.60;;;;;;;27.55;35.06;101680.03;6125177;23;20002;-91
2022/08/27 10:16:22;;;;;;;3.00;1.45;;;;;;;26.87;36.44;101678.44;6124242;23;20009;-91
2022/08/27 10:18:54;;;;;;;3.00;1.30;;;;;;;25.99;37.12;101662.41;6150582;23;20076;-90
2022/08/27 10:21:32;;;;;;;;;;;;;;;26.09;38.52;101669.53;6150133;23;20013;-91
2022/08/27 10:24:25;;;;;;;2.60;1.45;;;;;;;26.50;37.12;101669.41;6150968;23;19983;-91
2022/08/27 10:26:57;;;;;;;2.72;1.60;;;;;;;26.46;36.91;101671.53;6124769;23;20056;-90
2022/08/27 10:29:38;;;;;;;4.40;1.88;;;;;;;26.66;36.88;101667.78;6125238;23;20014;-90
2022/08/27 10:32:12;;;;;;;4.10;1.67;;;;;;;26.71;37.49;101667.34;6151778;23;20433;-90
2022/08/27 10:34:48;;;;;;;2.30;1.23;;;;;;;26.34;37.38;101656.38;6124980;23;20350;-91
2022/08/27 10:37:42;;;;;;;3.22;1.40;;;;;;;26.13;37.14;101664.69;6125945;23;20419;-91
2022/08/27 10:40:10;;;;;;;4.03;1.33;;;;;;;25.87;37.67;101665.22;6151999;23;20007;-90
2022/08/27 10:43:02;;;;;;;3.33;1.73;;;;;;;25.82;37.65;101656.66;6151357;23;20009;-90
2022/08/27 10:46:02;;;;;;;2.60;1.10;;;;;;;25.93;37.84;101661.97;6123553;23;20005;-91
2022/08/27 10:48:37;;;;;;;2.80;1.55;;;;;;;26.03;37.50;101664.69;6126127;23;20012;-90
2022/08/27 10:51:25;;;;;;;3.92;1.50;;;;;;;26.26;37.45;101667.13;6125309;23;20002;-90
2022/08/27 10:54:26;;;;;;;2.78;1.35;;;;;;;26.35;37.53;101666.25;6125231;23;20048;-91
2022/08/27 10:57:02;;;;;;;3.08;1.40;;;;;;;26.54;36.87;101655.41;6151021;23;20092;-90
2022/08/27 10:59:50;;;;;;;2.50;1.15;;;;;;;26.76;36.62;101653.34;6149264;23;20009;-92
2022/08/27 11:02:46;;;;;;;3.05;1.38;;;;;;;26.77;37.28;101664.06;6150310;23;20501;-91
2022/08/27 11:05:33;;;;;;;3.97;1.35;;;;;;;26.70;37.22;101661.06;6122628;23;20009;-90
2022/08/27 11:08:09;;;;;;;3.08;1.40;;;;;;;26.40;36.24;101659.38;6148640;23;20017;-91
2022/08/27 11:10:38;;;;;;;3.20;1.10;;;;;;;26.15;36.93;101649.13;6151703;23;20377;-90
2022/08/27 11:13:33;;;;;;;3.08;1.33;;;;;;;26.15;37.18;101654.53;6152938;23;20130;-91
2022/08/27 11:16:01;;;;;;;4.13;1.42;;;;;;;25.95;37.72;101659.09;6126237;23;20012;-89
2022/08/27 11:19:05;;;;;;;4.55;1.50;;;;;;;26.11;38.73;101658.53;6126796;23;20048;-90
2022/08/27 11:21:33;;;;;;;3.90;1.25;;;;;;;26.20;38.03;101658.53;6091846;23;20005;-90
2022/08/27 11:24:23;;;;;;;2.33;1.20;;;;;;;26.15;37.34;101644.53;6151163;23;20438;-91
2022/08/27 11:26:52;;;;;;;6.22;1.60;;;;;;;25.94;37.50;101647.41;6124573;23;20005;-89
2022/08/27 11:29:37;;;;;;;4.32;1.45;;;;;;;25.76;37.85;101643.69;6149808;23;20005;-90
2022/08/27 11:32:21;;;;;;;1.92;1.27;;;;;;;25.84;37.64;101646.56;6124404;23;20056;-91
2022/08/27 11:34:54;;;;;;;3.47;1.38;;;;;;;25.72;37.31;101647.66;6099939;23;20209;-90
2022/08/27 11:37:20;;;;;;;3.03;1.55;;;;;;;25.77;37.27;101652.66;6124840;23;20005;-91
2022/08/27 11:40:19;;;;;;;5.30;1.33;;;;;;;26.01;37.62;101646.84;6127588;23;20291;-90
2022/08/27 11:42:55;;;;;;;4.18;1.40;;;;;;;26.19;37.10;101654.09;6125054;23;20056;-91
2022/08/27 11:45:37;;;;;;;6.13;1.42;;;;;;;26.25;36.67;101649.09;6151635;23;20653;-90
2022/08/27 11:48:16;;;;;;;3.25;1.10;;;;;;;26.35;36.71;101656.25;6152599;23;20005;-90
2022/08/27 11:50:53;;;;;;;4.22;1.45;;;;;;;26.24;36.65;101645.53;6152265;23;20012;-91